Time;durP1;ratioP1;P1;durP2;ratioP2;P2;SDS_P1;SDS_P2;PMS_P1;PMS_P2;Temp;Humidity;BMP_temperature;BMP_pressure;BME280_temperature;BME280_humidity;BME280_pressure;Samples;Min_cycle;Max_cycle;Signal;HPM_P1;HPM_P2
2022/04/29 00:00:43;;;;;;;0.10;0.10;;;;;;;11.14;58.08;103222.91;5009926;28;20025;-85
2022/04/29 00:03:11;;;;;;;0.10;0.10;;;;;;;11.13;58.48;103218.50;5009483;28;20038;-85
2022/04/29 00:05:40;;;;;;;0.00;0.00;;;;;;;11.14;58.52;103220.25;5016660;28;20030;-85
2022/04/29 00:08:08;;;;;;;0.08;0.08;;;;;;;11.15;58.08;103224.72;5011844;28;20041;-85
2022/04/29 00:10:35;;;;;;;0.10;0.10;;;;;;;11.16;58.12;103221.19;5007705;28;20034;-85
2022/04/29 00:13:03;;;;;;;0.10;0.10;;;;;;;11.14;58.23;103220.25;5015840;28;20040;-85
2022/04/29 00:15:30;;;;;;;0.05;0.05;;;;;;;11.14;58.40;103209.66;5016511;28;20398;-85
2022/04/29 00:17:56;;;;;;;0.00;0.00;;;;;;;11.13;57.93;103213.19;5016528;28;20116;-85
2022/04/29 00:20:23;;;;;;;0.00;0.00;;;;;;;11.11;57.89;103213.16;5012352;28;20081;-85
2022/04/29 00:22:50;;;;;;;0.63;0.63;;;;;;;11.08;58.06;103205.16;5006513;28;20045;-85
2022/04/29 00:25:16;;;;;;;0.10;0.10;;;;;;;11.09;57.65;103201.66;5015860;28;20036;-85
2022/04/29 00:27:42;;;;;;;0.10;0.10;;;;;;;11.03;57.93;103211.25;5013131;28;20052;-85
2022/04/29 00:30:11;;;;;;;0.00;0.00;;;;;;;11.07;58.25;103207.78;5011691;28;20113;-85
2022/04/29 00:32:38;;;;;;;0.20;0.20;;;;;;;11.06;58.43;103195.41;5005607;28;20048;-85
2022/04/29 00:35:06;;;;;;;0.10;0.10;;;;;;;11.09;57.77;103193.69;5010558;28;20029;-85
2022/04/29 00:37:41;;;;;;;0.00;0.00;;;;;;;11.08;58.03;103188.31;5017206;28;20025;-85
2022/04/29 00:40:10;;;;;;;0.10;0.10;;;;;;;11.09;58.09;103180.41;5013773;28;20045;-85
2022/04/29 00:42:36;;;;;;;0.03;0.03;;;;;;;11.10;58.46;103176.00;5005758;28;20080;-85
2022/04/29 00:45:02;;;;;;;0.03;0.03;;;;;;;11.07;58.15;103181.25;5005311;28;20026;-85
2022/04/29 00:47:29;;;;;;;0.10;0.10;;;;;;;11.07;58.46;103186.56;5011481;28;20034;-85
2022/04/29 00:49:55;;;;;;;0.10;0.10;;;;;;;11.09;58.08;103188.38;5009705;28;20175;-86
2022/04/29 00:52:23;;;;;;;0.17;0.17;;;;;;;11.08;57.60;103183.03;5007181;28;20026;-86
2022/04/29 00:54:56;;;;;;;0.00;0.00;;;;;;;11.06;57.81;103184.78;5011438;28;20050;-85
2022/04/29 00:57:28;;;;;;;0.10;0.10;;;;;;;10.99;57.72;103179.38;5012390;28;20026;-85
2022/04/29 00:59:57;;;;;;;;;;;;;;;11.09;57.97;103182.16;5009684;28;20034;-85
2022/04/29 01:02:23;;;;;;;0.00;0.00;;;;;;;10.93;58.35;103179.28;5015814;28;19920;-85
2022/04/29 01:05:12;;;;;;;4.30;0.75;;;;;;;10.99;58.62;103179.38;5005380;28;20038;-85
2022/04/29 01:07:40;;;;;;;0.35;0.32;;;;;;;10.95;58.46;103180.22;5023372;28;20037;-84
2022/04/29 01:10:10;;;;;;;0.08;0.08;;;;;;;10.92;59.31;103180.13;5022710;28;20517;-85
2022/04/29 01:12:38;;;;;;;0.10;0.10;;;;;;;10.96;58.66;103173.13;5028162;28;20040;-85
2022/04/29 01:15:09;;;;;;;0.10;0.10;;;;;;;10.98;58.78;103176.72;5011981;28;20054;-85
2022/04/29 01:17:36;;;;;;;0.00;0.00;;;;;;;11.00;58.21;103170.56;5014576;28;20401;-85
2022/04/29 01:20:08;;;;;;;0.00;0.00;;;;;;;11.06;58.54;103166.22;5022290;28;20053;-85
2022/04/29 01:22:34;;;;;;;0.10;0.10;;;;;;;11.04;58.42;103170.59;5014560;28;20025;-85
2022/04/29 01:25:02;;;;;;;0.15;0.15;;;;;;;11.02;58.71;103161.75;5014226;28;20030;-85
2022/04/29 01:27:29;;;;;;;0.10;0.10;;;;;;;11.03;58.21;103158.19;5007027;28;20076;-85
2022/04/29 01:30:02;;;;;;;0.00;0.00;;;;;;;11.04;58.51;103160.88;5016652;28;20095;-85
2022/04/29 01:32:33;;;;;;;0.00;0.00;;;;;;;10.98;58.43;103159.03;5032497;28;20108;-85
2022/04/29 01:35:00;;;;;;;0.10;0.10;;;;;;;10.96;58.36;103152.78;5011198;28;20485;-85
2022/04/29 01:37:26;;;;;;;0.03;0.03;;;;;;;10.95;58.54;103145.72;5023762;28;20112;-85
2022/04/29 01:39:52;;;;;;;0.00;0.00;;;;;;;10.97;58.68;103151.03;5007454;28;20493;-85
2022/04/29 01:42:19;;;;;;;0.17;0.17;;;;;;;10.99;58.37;103152.84;5014183;28;20481;-85
2022/04/29 01:44:46;;;;;;;0.10;0.10;;;;;;;10.97;58.54;103143.09;5021940;28;20401;-85
2022/04/29 01:47:13;;;;;;;0.00;0.00;;;;;;;10.98;58.31;103140.44;5022021;28;20186;-85
2022/04/29 01:49:39;;;;;;;0.03;0.03;;;;;;;10.95;58.44;103159.00;5019755;28;20053;-85
2022/04/29 01:52:06;;;;;;;0.20;0.20;;;;;;;10.94;58.39;103166.91;5028573;28;20041;-84
2022/04/29 01:54:32;;;;;;;0.10;0.10;;;;;;;10.95;58.31;103160.72;5032341;28;20052;-84
2022/04/29 01:56:58;;;;;;;0.10;0.10;;;;;;;10.92;58.66;103161.56;5030621;28;20038;-85
2022/04/29 01:59:24;;;;;;;0.00;0.00;;;;;;;10.97;58.22;103164.31;5017867;28;20037;-85
2022/04/29 02:01:50;;;;;;;0.00;0.00;;;;;;;10.95;57.99;103155.44;5044199;28;20037;-84
2022/04/29 02:04:16;;;;;;;0.10;0.10;;;;;;;10.91;58.61;103149.19;5040702;28;20044;-85
2022/04/29 02:06:43;;;;;;;0.08;0.08;;;;;;;10.92;58.50;103140.34;5041630;28;20624;-85
2022/04/29 02:09:10;;;;;;;0.20;0.20;;;;;;;10.90;59.00;103139.44;5048280;28;20037;-85
2022/04/29 02:11:36;;;;;;;0.10;0.10;;;;;;;10.90;59.03;103125.28;5050148;28;20069;-84
2022/04/29 02:14:02;;;;;;;0.03;0.03;;;;;;;10.93;58.54;103126.22;5019174;28;20499;-84
2022/04/29 02:16:29;;;;;;;0.30;0.30;;;;;;;10.94;58.76;103133.31;5013156;28;20576;-85
2022/04/29 02:18:55;;;;;;;0.00;0.00;;;;;;;10.93;59.14;103131.53;5023367;28;20289;-84
2022/04/29 02:21:22;;;;;;;0.10;0.10;;;;;;;10.92;59.24;103127.09;5042446;28;20037;-85
2022/04/29 02:23:48;;;;;;;0.00;0.00;;;;;;;10.93;58.92;103135.94;5035606;28;20038;-85
2022/04/29 02:26:14;;;;;;;1.35;1.35;;;;;;;10.94;58.85;103141.28;5038961;28;20093;-85
2022/04/29 02:28:40;;;;;;;0.10;0.10;;;;;;;10.94;58.95;103133.31;5033305;28;20046;-85
2022/04/29 02:31:07;;;;;;;0.25;0.25;;;;;;;10.94;58.94;103132.41;5023851;28;20537;-85
2022/04/29 02:33:33;;;;;;;0.13;0.13;;;;;;;10.93;58.78;103142.16;5026134;28;20036;-84
2022/04/29 02:36:01;;;;;;;0.10;0.10;;;;;;;10.92;58.91;103139.47;5024511;28;20029;-84
2022/04/29 02:38:27;;;;;;;0.00;0.00;;;;;;;10.93;58.64;103142.16;5016909;28;20041;-85
2022/04/29 02:40:54;;;;;;;0.10;0.10;;;;;;;10.89;59.25;103135.03;5016182;28;20042;-85
2022/04/29 02:43:20;;;;;;;0.00;0.00;;;;;;;10.92;58.72;103134.19;5009853;28;20391;-82
2022/04/29 02:45:47;;;;;;;0.00;0.00;;;;;;;10.90;58.84;103131.47;5018050;28;20048;-85
2022/04/29 02:48:15;;;;;;;0.00;0.00;;;;;;;10.86;58.52;103124.34;5029438;28;20022;-84
2022/04/29 02:50:41;;;;;;;0.00;0.00;;;;;;;10.84;58.17;103126.06;5022087;28;20030;-85
2022/04/29 02:53:07;;;;;;;0.10;0.10;;;;;;;10.83;58.32;103129.63;5013112;28;20038;-84
2022/04/29 02:55:33;;;;;;;0.10;0.10;;;;;;;10.78;58.40;103128.63;5020092;28;20080;-84
2022/04/29 02:57:59;;;;;;;0.52;0.52;;;;;;;10.75;58.66;103126.81;5030102;28;20601;-85
2022/04/29 03:00:25;;;;;;;0.00;0.00;;;;;;;10.77;58.40;103129.53;5031953;28;20034;-85
2022/04/29 03:02:51;;;;;;;0.00;0.00;;;;;;;10.77;58.69;103124.22;5009501;28;20048;-85
2022/04/29 03:05:18;;;;;;;0.10;0.10;;;;;;;10.77;58.77;103127.75;5019308;28;20033;-84
2022/04/29 03:07:44;;;;;;;0.22;0.22;;;;;;;10.75;58.84;103128.59;5022992;28;20122;-84
2022/04/29 03:10:10;;;;;;;0.03;0.03;;;;;;;10.68;59.09;103125.84;5010403;28;20690;-84
2022/04/29 03:12:36;;;;;;;0.10;0.10;;;;;;;10.72;59.29;103120.59;5005186;28;20045;-84
2022/04/29 03:15:18;;;;;;;0.10;0.10;;;;;;;10.72;58.90;103131.22;5005699;28;20104;-84
2022/04/29 03:18:18;;;;;;;0.10;0.10;;;;;;;10.75;59.09;103126.81;5012072;28;20420;-84
2022/04/29 03:20:37;;;;;;;0.10;0.10;;;;;;;10.65;59.44;103131.09;5013724;28;20520;-84
2022/04/29 03:23:04;;;;;;;0.00;0.00;;;;;;;10.68;59.22;103124.97;5010173;28;20125;-84
2022/04/29 03:25:30;;;;;;;0.10;0.10;;;;;;;10.70;58.94;103123.22;5014320;28;20551;-84
2022/04/29 03:27:56;;;;;;;0.10;0.10;;;;;;;10.70;59.10;103123.22;5010582;28;20041;-84
2022/04/29 03:30:22;;;;;;;0.30;0.30;;;;;;;10.72;58.93;103112.66;5009574;28;20034;-84
2022/04/29 03:32:51;;;;;;;0.03;0.03;;;;;;;10.73;59.13;103111.75;5013313;28;20084;-84
2022/04/29 03:35:18;;;;;;;0.08;0.08;;;;;;;10.73;58.75;103110.03;5011671;28;20497;-84
2022/04/29 03:37:44;;;;;;;0.73;0.73;;;;;;;10.71;59.14;103118.81;5007267;28;20166;-84
2022/04/29 03:40:11;;;;;;;0.10;0.10;;;;;;;10.65;58.36;103109.91;5017388;28;20413;-84
2022/04/29 03:42:38;;;;;;;1.35;1.33;;;;;;;10.68;58.47;103112.59;5007563;28;20108;-84
2022/04/29 03:45:04;;;;;;;0.30;0.30;;;;;;;10.61;58.89;103113.34;5012576;28;20116;-84
2022/04/29 03:47:30;;;;;;;0.60;0.60;;;;;;;10.60;58.59;103108.91;5010574;28;20041;-84
2022/04/29 03:49:56;;;;;;;0.10;0.10;;;;;;;10.55;58.55;103110.59;5017026;28;20037;-84
2022/04/29 03:52:23;;;;;;;1.55;1.45;;;;;;;10.54;58.68;103111.47;5018802;28;20189;-84
2022/04/29 03:54:49;;;;;;;0.20;0.20;;;;;;;10.54;58.76;103106.16;5015900;28;20042;-84
2022/04/29 03:57:15;;;;;;;0.10;0.10;;;;;;;10.55;59.05;103112.38;5012155;28;20105;-84
2022/04/29 03:59:41;;;;;;;0.10;0.10;;;;;;;10.56;59.34;103109.72;5016167;28;20470;-84
2022/04/29 04:02:07;;;;;;;0.03;0.03;;;;;;;10.55;59.36;103105.28;5015336;28;21131;-84
2022/04/29 04:04:33;;;;;;;0.22;0.22;;;;;;;10.58;59.08;103108.00;5011040;28;20030;-84
2022/04/29 04:07:02;;;;;;;0.10;0.10;;;;;;;10.58;59.22;103105.38;5016381;28;20034;-84
2022/04/29 04:09:28;;;;;;;0.10;0.10;;;;;;;10.55;59.66;103100.00;5028481;28;20052;-84
2022/04/29 04:11:55;;;;;;;0.10;0.10;;;;;;;10.56;59.04;103090.31;5015267;28;20041;-84
2022/04/29 04:14:21;;;;;;;0.10;0.10;;;;;;;10.51;59.58;103095.50;5010443;28;20052;-84
2022/04/29 04:16:49;;;;;;;0.10;0.10;;;;;;;10.53;58.49;103091.16;5009621;28;20038;-84
2022/04/29 04:19:16;;;;;;;0.10;0.10;;;;;;;10.48;58.85;103096.34;5008542;28;20052;-83
2022/04/29 04:21:42;;;;;;;0.00;0.00;;;;;;;10.46;58.83;103092.78;5022779;28;20041;-83
2022/04/29 04:24:09;;;;;;;0.10;0.10;;;;;;;10.45;59.13;103084.81;5032337;28;20112;-84
2022/04/29 04:26:35;;;;;;;0.08;0.08;;;;;;;10.41;59.13;103089.16;5010767;28;20037;-84
2022/04/29 04:29:01;;;;;;;0.65;0.30;;;;;;;10.42;59.19;103087.41;5006104;28;20040;-84
2022/04/29 04:31:27;;;;;;;0.10;0.10;;;;;;;10.41;59.49;103091.81;5003847;28;20494;-84
2022/04/29 04:33:54;;;;;;;0.28;0.28;;;;;;;10.40;59.43;103078.53;5004071;28;20089;-84
2022/04/29 04:36:22;;;;;;;0.05;0.05;;;;;;;10.38;59.76;103082.91;5008754;28;20041;-84
2022/04/29 04:38:48;;;;;;;0.17;0.17;;;;;;;10.35;60.07;103079.34;5012443;28;20034;-84
2022/04/29 04:41:16;;;;;;;0.13;0.13;;;;;;;10.36;59.94;103086.44;5004726;28;20096;-84
2022/04/29 04:43:44;;;;;;;0.10;0.10;;;;;;;10.40;59.19;103082.06;5006856;28;20514;-84
2022/04/29 04:46:12;;;;;;;0.20;0.20;;;;;;;10.40;59.72;103086.50;5010688;28;20033;-84
2022/04/29 04:48:38;;;;;;;0.10;0.10;;;;;;;10.40;59.46;103081.19;5008224;28;20112;-84
2022/04/29 04:51:04;;;;;;;0.00;0.00;;;;;;;10.35;59.60;103079.34;5008066;28;20049;-84
2022/04/29 04:53:30;;;;;;;0.10;0.10;;;;;;;10.33;59.93;103093.41;5009308;28;20069;-84
2022/04/29 04:55:57;;;;;;;0.10;0.10;;;;;;;10.33;59.85;103089.00;5009972;28;20033;-85
2022/04/29 04:58:23;;;;;;;0.05;0.05;;;;;;;10.34;59.97;103093.44;5006636;28;20034;-84
2022/04/29 05:00:50;;;;;;;0.13;0.13;;;;;;;10.35;59.79;103087.28;5008091;28;20034;-84
2022/04/29 05:05:46;;;;;;;0.10;0.10;;;;;;;10.36;59.36;103091.72;5041536;28;20037;-77
2022/04/29 05:08:12;;;;;;;0.10;0.10;;;;;;;10.37;59.12;103087.34;5050189;28;20065;-77
2022/04/29 05:10:38;;;;;;;0.20;0.20;;;;;;;10.34;58.80;103085.50;5050857;28;20693;-77
2022/04/29 05:13:04;;;;;;;0.40;0.40;;;;;;;10.31;59.53;103093.38;5043167;28;20033;-78
2022/04/29 05:15:30;;;;;;;0.10;0.10;;;;;;;10.28;59.92;103096.00;5021981;28;20036;-78
2022/04/29 05:17:56;;;;;;;0.00;0.00;;;;;;;10.31;59.55;103096.03;5018494;28;20174;-78
2022/04/29 05:20:22;;;;;;;0.10;0.10;;;;;;;10.32;59.45;103100.47;5031813;28;20123;-78
2022/04/29 05:22:49;;;;;;;0.20;0.20;;;;;;;10.32;59.56;103105.78;5032769;28;20025;-78
2022/04/29 05:25:15;;;;;;;0.10;0.10;;;;;;;10.33;59.51;103115.50;5025794;28;20113;-78
2022/04/29 05:27:41;;;;;;;0.10;0.10;;;;;;;10.35;60.31;103118.19;5021119;28;21054;-78
2022/04/29 05:30:09;;;;;;;0.10;0.10;;;;;;;10.40;59.43;103123.59;5026802;28;20091;-77
2022/04/29 05:32:37;;;;;;;0.10;0.10;;;;;;;10.38;60.25;103120.94;5028291;28;20060;-77
2022/04/29 05:35:05;;;;;;;0.00;0.00;;;;;;;10.40;59.59;103123.59;5032253;28;20029;-78
2022/04/29 05:37:31;;;;;;;0.10;0.10;;;;;;;10.44;59.39;103122.78;5029643;28;20049;-77
2022/04/29 05:42:43;;;;;;;0.00;0.00;;;;;;;10.48;59.86;103122.88;5032863;28;20051;-78
2022/04/29 05:45:09;;;;;;;0.10;0.10;;;;;;;10.56;59.54;103120.34;5028683;28;20084;-78
2022/04/29 05:47:36;;;;;;;0.20;0.20;;;;;;;10.65;59.55;103120.50;5032482;28;20124;-78
2022/04/29 05:50:03;;;;;;;0.00;0.00;;;;;;;10.77;59.48;103113.63;5028956;28;20039;-77
2022/04/29 05:52:29;;;;;;;0.10;0.10;;;;;;;10.87;59.76;103112.00;5033204;28;20107;-78
2022/04/29 05:54:55;;;;;;;0.10;0.10;;;;;;;10.99;59.63;103107.75;5031557;28;20044;-77
2022/04/29 05:57:21;;;;;;;0.00;0.00;;;;;;;11.11;59.44;103109.69;5034164;28;20067;-78
2022/04/29 05:59:47;;;;;;;0.20;0.20;;;;;;;11.16;58.86;103113.31;5028333;28;20055;-78
2022/04/29 06:02:14;;;;;;;0.08;0.08;;;;;;;11.18;58.61;103129.25;5026619;28;20033;-78
2022/04/29 06:04:40;;;;;;;0.10;0.10;;;;;;;11.23;58.42;103130.19;5026280;28;20038;-77
2022/04/29 06:07:06;;;;;;;0.10;0.10;;;;;;;11.25;58.79;103135.53;5027725;28;20018;-77
2022/04/29 06:09:32;;;;;;;0.10;0.10;;;;;;;11.28;58.94;103120.53;5030841;28;20029;-78
2022/04/29 06:11:58;;;;;;;0.10;0.10;;;;;;;11.42;58.38;103130.47;5028536;28;20044;-78
2022/04/29 06:14:24;;;;;;;0.00;0.00;;;;;;;11.43;58.75;103121.63;5024050;28;20096;-78
2022/04/29 06:16:50;;;;;;;0.10;0.10;;;;;;;11.48;58.55;103130.53;5027136;28;20055;-79
2022/04/29 06:19:16;;;;;;;0.05;0.05;;;;;;;11.58;58.71;103126.25;5030455;28;20167;-78
2022/04/29 06:21:42;;;;;;;0.00;0.00;;;;;;;11.69;58.56;103129.91;5025753;28;20041;-79
2022/04/29 06:24:08;;;;;;;0.00;0.00;;;;;;;11.83;58.21;103127.41;5024750;28;20037;-78
2022/04/29 06:26:35;;;;;;;0.00;0.00;;;;;;;11.91;58.36;103123.09;5028497;28;20037;-78
2022/04/29 06:29:01;;;;;;;0.05;0.05;;;;;;;11.87;58.35;103117.72;5033971;28;20537;-79
2022/04/29 06:31:27;;;;;;;0.52;0.52;;;;;;;12.00;57.43;103122.34;5035587;28;20037;-79
2022/04/29 06:33:53;;;;;;;0.00;0.00;;;;;;;12.05;58.29;103117.03;5036098;28;20033;-79
2022/04/29 06:36:19;;;;;;;0.08;0.08;;;;;;;12.13;58.61;103121.56;5032322;28;20045;-78
2022/04/29 06:38:45;;;;;;;0.03;0.03;;;;;;;12.23;57.79;103117.22;5030350;28;20051;-80
2022/04/29 06:41:11;;;;;;;0.40;0.40;;;;;;;12.26;57.62;103111.97;5028694;28;20051;-79
2022/04/29 06:43:38;;;;;;;0.00;0.00;;;;;;;12.35;57.53;103120.88;5027987;28;20049;-79
2022/04/29 06:46:04;;;;;;;0.10;0.10;;;;;;;12.39;56.53;103130.69;5029091;28;20033;-79
2022/04/29 06:48:30;;;;;;;0.10;0.10;;;;;;;12.44;56.89;103136.94;5029992;28;20037;-79
2022/04/29 06:50:56;;;;;;;0.00;0.00;;;;;;;12.54;56.73;103144.09;5023702;28;20409;-79
2022/04/29 06:53:22;;;;;;;0.85;0.85;;;;;;;12.66;56.42;103134.44;5026793;28;20543;-79
2022/04/29 06:55:48;;;;;;;0.00;0.00;;;;;;;12.74;56.11;103135.41;5026954;28;20049;-78
2022/04/29 06:58:15;;;;;;;1.77;0.82;;;;;;;12.78;56.05;103140.75;5023823;28;20040;-76
2022/04/29 07:00:42;;;;;;;0.05;0.05;;;;;;;12.85;55.80;103146.13;5023273;28;20056;-77
2022/04/29 07:03:09;;;;;;;0.00;0.00;;;;;;;12.97;56.63;103153.28;5021815;28;20033;-77
2022/04/29 07:05:38;;;;;;;0.00;0.00;;;;;;;13.04;55.92;103161.31;5023053;28;20072;-78
2022/04/29 07:08:05;;;;;;;0.55;0.55;;;;;;;13.10;55.89;103156.03;5031936;28;20120;-79
2022/04/29 07:10:31;;;;;;;0.08;0.08;;;;;;;13.08;55.45;103156.91;5025830;28;20033;-79
2022/04/29 07:12:57;;;;;;;0.05;0.05;;;;;;;13.13;54.38;103157.84;5034641;28;20184;-77
2022/04/29 07:15:23;;;;;;;0.10;0.10;;;;;;;13.18;55.13;103153.44;5031104;28;20069;-77
2022/04/29 07:17:49;;;;;;;0.00;0.00;;;;;;;13.32;55.49;103155.28;5029957;28;20025;-79
2022/04/29 07:20:16;;;;;;;0.20;0.20;;;;;;;13.42;54.11;103157.13;5028931;28;21027;-82
2022/04/29 07:22:42;;;;;;;0.45;0.45;;;;;;;13.47;55.19;103144.78;5035469;28;20026;-81
2022/04/29 07:25:11;;;;;;;0.10;0.10;;;;;;;13.59;54.35;103133.25;5025673;28;20531;-79
2022/04/29 07:27:39;;;;;;;0.00;0.00;;;;;;;13.62;53.84;103132.38;5033830;28;20050;-79
2022/04/29 07:30:07;;;;;;;0.00;0.00;;;;;;;13.72;54.07;103139.50;5031980;28;20030;-79
2022/04/29 07:32:33;;;;;;;0.47;0.47;;;;;;;13.66;53.44;103134.19;5030952;28;20061;-79
2022/04/29 07:43:18;;;;;;;0.00;0.00;;;;;;;13.83;53.17;103131.56;5034078;28;20033;-79
2022/04/29 07:45:44;;;;;;;0.08;0.08;;;;;;;13.83;51.71;103136.91;5035032;28;20064;-79
2022/04/29 07:48:11;;;;;;;0.00;0.00;;;;;;;13.92;52.64;103142.28;5034400;28;20109;-80
2022/04/29 07:50:37;;;;;;;0.00;0.00;;;;;;;13.95;52.43;103150.25;5034591;28;20143;-79
2022/04/29 07:53:04;;;;;;;0.08;0.08;;;;;;;14.03;53.24;103132.53;5034024;28;20044;-79
2022/04/29 07:55:31;;;;;;;0.00;0.00;;;;;;;14.03;52.89;103123.63;5034770;28;20068;-79
2022/04/29 07:57:57;;;;;;;0.00;0.00;;;;;;;14.06;52.83;103123.63;5034063;28;20075;-78
2022/04/29 08:00:24;;;;;;;0.28;0.28;;;;;;;14.00;52.09;103124.50;5026085;28;20075;-79
2022/04/29 08:02:50;;;;;;;0.00;0.00;;;;;;;14.00;52.54;103123.63;5034165;28;20037;-80
2022/04/29 08:05:17;;;;;;;0.00;0.00;;;;;;;14.01;52.11;103120.09;5034389;28;20029;-79
2022/04/29 08:07:43;;;;;;;0.70;0.70;;;;;;;14.05;52.21;103127.19;5033393;28;20044;-79
2022/04/29 08:10:10;;;;;;;0.08;0.08;;;;;;;14.09;52.82;103123.63;5034116;28;20040;-79
2022/04/29 08:12:37;;;;;;;0.30;0.30;;;;;;;14.22;52.65;103133.44;5034295;28;20532;-79
2022/04/29 08:15:04;;;;;;;0.13;0.13;;;;;;;14.22;52.60;103133.44;5034351;28;20033;-79
2022/04/29 08:17:30;;;;;;;0.32;0.32;;;;;;;14.28;52.35;103134.31;5033746;28;20036;-79
2022/04/29 08:19:56;;;;;;;0.00;0.00;;;;;;;14.32;52.31;103130.81;5033635;28;20493;-79
2022/04/29 08:22:23;;;;;;;0.00;0.00;;;;;;;14.35;52.05;103130.78;5033782;28;20032;-78
2022/04/29 08:24:49;;;;;;;0.10;0.10;;;;;;;14.31;51.59;103129.88;5036614;28;20025;-79
2022/04/29 08:27:15;;;;;;;0.00;0.00;;;;;;;14.33;51.69;103135.22;5036668;28;20033;-79
2022/04/29 08:29:41;;;;;;;0.30;0.30;;;;;;;14.41;52.26;103130.78;5043611;28;20069;-78
2022/04/29 08:32:08;;;;;;;0.00;0.00;;;;;;;14.40;51.70;103131.66;5045480;28;20041;-78
2022/04/29 08:34:34;;;;;;;0.05;0.05;;;;;;;14.48;51.86;103127.25;5045380;28;20030;-78
2022/04/29 08:37:03;;;;;;;0.20;0.20;;;;;;;14.48;51.56;103129.00;5044505;28;20037;-78
2022/04/29 08:39:30;;;;;;;0.00;0.00;;;;;;;14.51;51.50;103137.03;5041398;28;20060;-78
2022/04/29 08:42:01;;;;;;;0.00;0.00;;;;;;;14.56;51.04;103133.44;5035904;28;20448;-79
2022/04/29 08:44:30;;;;;;;1.27;0.68;;;;;;;14.63;51.53;103131.69;5033856;28;20052;-79
2022/04/29 08:46:58;;;;;;;0.63;0.13;;;;;;;14.57;50.98;103131.69;5033886;28;20025;-78
2022/04/29 08:49:25;;;;;;;0.30;0.30;;;;;;;14.64;51.14;103127.22;5032942;28;20026;-78
2022/04/29 08:51:52;;;;;;;0.50;0.25;;;;;;;14.61;51.18;103124.56;5033090;28;20033;-78
2022/04/29 08:59:59;;;;;;;0.10;0.10;;;;;;;14.65;51.22;103139.72;5032910;28;20060;-78
2022/04/29 09:02:27;;;;;;;0.00;0.00;;;;;;;14.72;50.99;103137.03;5032535;28;20429;-78
2022/04/29 09:04:55;;;;;;;0.75;0.75;;;;;;;14.78;50.63;103152.16;5035831;28;20072;-78
2022/04/29 09:08:01;;;;;;;0.47;0.47;;;;;;;14.84;49.59;103149.50;5037597;28;20025;-77
2022/04/29 09:10:29;;;;;;;0.20;0.20;;;;;;;14.81;50.48;103146.81;5037000;28;20111;-78
2022/04/29 09:13:09;;;;;;;0.08;0.08;;;;;;;14.82;49.66;103148.59;5036402;28;20108;-77
2022/04/29 09:15:36;;;;;;;0.00;0.00;;;;;;;14.88;49.82;103143.25;5037404;28;20141;-78
2022/04/29 09:18:02;;;;;;;0.45;0.45;;;;;;;14.96;49.79;103151.25;5037666;28;20030;-78
2022/04/29 09:20:28;;;;;;;0.13;0.13;;;;;;;14.96;49.83;103143.25;5034958;28;20022;-78
2022/04/29 09:22:54;;;;;;;0.00;0.00;;;;;;;15.08;49.78;103141.44;5035334;28;20070;-77
2022/04/29 09:25:21;;;;;;;0.00;0.00;;;;;;;15.14;49.22;103136.09;5036390;28;20040;-78
2022/04/29 09:28:04;;;;;;;0.10;0.10;;;;;;;15.27;48.50;103135.16;5036595;28;20440;-78
2022/04/29 09:30:37;;;;;;;0.10;0.10;;;;;;;15.37;49.48;103130.69;5035755;28;20037;-77
2022/04/29 09:33:04;;;;;;;0.00;0.00;;;;;;;15.37;49.00;103131.56;5036144;28;20088;-78
2022/04/29 09:35:39;;;;;;;0.00;0.00;;;;;;;15.51;48.45;103120.84;5036945;28;20079;-79
2022/04/29 09:40:54;;;;;;;0.20;0.20;;;;;;;15.61;48.95;103123.47;5035948;28;20053;-78
2022/04/29 09:43:42;;;;;;;0.05;0.05;;;;;;;15.79;48.51;103133.19;5036869;28;20080;-78
2022/04/29 09:46:10;;;;;;;0.10;0.10;;;;;;;15.85;48.84;103127.84;5036960;28;20022;-78
2022/04/29 09:48:58;;;;;;;0.10;0.10;;;;;;;15.97;48.53;103116.16;5036770;28;20033;-78
2022/04/29 10:02:28;;;;;;;0.60;0.57;;;;;;;16.21;46.73;103124.94;5093723;27;20387;-79
2022/04/29 10:04:55;;;;;;;3.03;0.43;;;;;;;16.17;46.57;103114.25;5090892;28;20040;-79
2022/04/29 10:07:23;;;;;;;0.10;0.10;;;;;;;16.13;46.18;103116.97;5090938;28;20086;-79
2022/04/29 10:09:52;;;;;;;0.05;0.05;;;;;;;16.14;46.97;103119.63;5090747;28;20024;-79
2022/04/29 10:12:21;;;;;;;0.10;0.10;;;;;;;16.09;46.42;103124.13;5096046;28;20036;-80
2022/04/29 10:14:52;;;;;;;0.20;0.20;;;;;;;16.13;47.48;103131.22;5097226;28;20028;-79
2022/04/29 10:25:45;;;;;;;0.10;0.10;;;;;;;16.09;47.63;103115.22;5110858;27;20388;-79
2022/04/29 10:28:18;;;;;;;0.20;0.20;;;;;;;16.06;47.30;103113.44;5111184;28;20036;-79
2022/04/29 10:30:45;;;;;;;0.00;0.00;;;;;;;15.91;46.61;103118.88;5110650;28;20453;-79
2022/04/29 10:33:12;;;;;;;0.35;0.35;;;;;;;15.89;47.06;103115.31;5109799;28;20465;-79
2022/04/29 10:38:21;;;;;;;0.10;0.10;;;;;;;15.92;47.24;103115.31;5127062;27;20363;-79
2022/04/29 10:41:07;;;;;;;0.30;0.30;;;;;;;15.96;47.00;103109.94;5092639;27;20500;-79
2022/04/29 10:46:41;;;;;;;0.15;0.15;;;;;;;16.17;46.66;103114.25;5068028;28;22299;-80
2022/04/29 10:49:28;;;;;;;0.10;0.10;;;;;;;16.27;46.38;103108.84;5070126;28;20028;-79
2022/04/29 10:51:56;;;;;;;0.10;0.10;;;;;;;16.21;46.34;103115.09;5062396;28;20028;-79
2022/04/29 10:54:43;;;;;;;1.10;0.52;;;;;;;16.38;46.92;103128.34;5070229;28;20476;-79
2022/04/29 10:57:12;;;;;;;0.00;0.00;;;;;;;16.43;46.85;103115.81;5070747;28;20040;-80
2022/04/29 11:02:31;;;;;;;0.33;0.33;;;;;;;16.64;45.78;103109.41;5135198;27;1168830;-79
2022/04/29 11:04:59;;;;;;;0.00;0.00;;;;;;;16.90;45.96;103115.44;5153673;22;20043;-87
2022/04/29 11:07:46;;;;;;;0.10;0.10;;;;;;;17.09;45.88;103108.97;5099065;28;20040;-86
2022/04/29 11:10:19;;;;;;;0.00;0.00;;;;;;;17.10;44.37;103116.13;5090929;28;20055;-86
2022/04/29 11:13:03;;;;;;;0.10;0.10;;;;;;;17.32;44.83;103120.34;5090618;28;20111;-87
2022/04/29 11:15:45;;;;;;;0.00;0.00;;;;;;;17.50;45.35;103111.19;5090971;28;20048;-86
2022/04/29 11:18:27;;;;;;;1.25;0.40;;;;;;;17.59;43.39;103108.38;5098286;28;20563;-86
2022/04/29 11:20:56;;;;;;;0.10;0.10;;;;;;;17.53;42.30;103113.81;5095471;28;20031;-85
2022/04/29 11:26:19;;;;;;;0.10;0.10;;;;;;;17.48;42.95;103097.78;5110950;28;20032;-86
2022/04/29 11:28:52;;;;;;;0.00;0.00;;;;;;;17.53;42.74;103100.41;5109286;28;20028;-86
2022/04/29 11:31:18;;;;;;;0.00;0.00;;;;;;;17.44;42.35;103091.59;5101579;28;20488;-87
2022/04/29 11:33:44;;;;;;;0.00;0.00;;;;;;;17.52;41.71;103098.63;5094782;28;20051;-86
2022/04/29 11:36:13;;;;;;;0.00;0.00;;;;;;;17.64;43.29;103098.47;5104461;28;20032;-87
2022/04/29 11:38:43;;;;;;;0.10;0.10;;;;;;;17.76;42.43;103092.94;5109980;28;20028;-87
2022/04/29 11:41:17;;;;;;;0.05;0.05;;;;;;;17.79;42.21;103108.09;5109843;28;20034;-87
2022/04/29 11:43:44;;;;;;;0.13;0.13;;;;;;;17.83;42.28;103104.50;5110135;28;20103;-87
2022/04/29 11:46:10;;;;;;;0.00;0.00;;;;;;;17.86;42.25;103104.44;5111587;28;20038;-87
2022/04/29 11:48:36;;;;;;;0.10;0.10;;;;;;;17.92;43.58;103092.75;5109076;28;20525;-87
2022/04/29 11:51:04;;;;;;;1.48;0.90;;;;;;;18.01;42.01;103097.97;5095694;28;20021;-87
2022/04/29 11:53:32;;;;;;;0.65;0.65;;;;;;;18.12;42.09;103095.13;5089258;28;20028;-87
2022/04/29 11:55:59;;;;;;;0.10;0.10;;;;;;;18.26;42.08;103093.09;5089375;28;20024;-87
2022/04/29 11:58:30;;;;;;;0.05;0.05;;;;;;;18.51;42.20;103092.69;5089431;28;20033;-88
2022/04/29 12:00:56;;;;;;;0.00;0.00;;;;;;;18.51;41.33;103089.13;5092644;28;20486;-87
2022/04/29 12:03:23;;;;;;;0.52;0.40;;;;;;;18.46;40.63;103088.34;5103509;28;20032;-84
2022/04/29 12:05:49;;;;;;;0.40;0.40;;;;;;;18.37;40.89;103090.25;5116822;28;20039;-86
2022/04/29 12:08:16;;;;;;;1.80;1.67;;;;;;;18.36;41.02;103083.09;5128811;28;20023;-86
2022/04/29 12:10:45;;;;;;;0.03;0.03;;;;;;;18.34;41.63;103082.22;5125269;28;20020;-87
2022/04/29 12:13:11;;;;;;;0.55;0.50;;;;;;;18.46;41.41;103077.59;5117520;28;20020;-85
2022/04/29 12:15:39;;;;;;;0.10;0.10;;;;;;;18.51;41.29;103070.34;5115951;28;20024;-87
2022/04/29 12:18:09;;;;;;;0.00;0.00;;;;;;;18.56;41.48;103063.09;5108736;28;20036;-87
2022/04/29 12:20:37;;;;;;;9.95;1.95;;;;;;;18.47;41.07;103073.97;5095880;28;20040;-87